createdAt,value
2018-05-01T00:01:02.857Z,82.53
2018-05-01T00:02:10.928Z,82.53
2018-05-01T00:03:18.968Z,81.48
2018-05-01T00:04:27.032Z,81.58
2018-05-01T00:05:35.065Z,79.86
2018-05-01T00:06:43.170Z,81.29
2018-05-01T00:07:51.220Z,81.48
2018-05-01T00:08:59.264Z,81.20
2018-05-01T00:10:07.383Z,81.77
2018-05-01T00:11:15.385Z,81.10
2018-05-01T00:12:23.466Z,79.11
2018-05-01T00:13:31.524Z,80.15
2018-05-01T00:14:39.570Z,81.20
2018-05-01T00:15:47.645Z,82.05
2018-05-01T00:16:55.697Z,82.34
2018-05-01T00:18:03.751Z,82.71
2018-05-01T00:19:11.833Z,81.67
2018-05-01T00:20:19.885Z,78.91
2018-05-01T00:21:27.948Z,79.39
2018-05-01T00:22:36.006Z,80.24
2018-05-01T00:23:44.037Z,81.29
2018-05-01T00:24:52.107Z,81.67
2018-05-01T00:26:00.186Z,81.01
2018-05-01T00:27:08.244Z,81.77
2018-05-01T00:28:16.311Z,81.29
2018-05-01T00:29:24.360Z,81.86
2018-05-01T00:30:32.409Z,82.91
2018-05-01T00:31:40.497Z,82.71
2018-05-01T00:32:48.537Z,82.71
2018-05-01T00:33:56.608Z,82.43
2018-05-01T00:35:04.640Z,81.86
2018-05-01T00:36:12.718Z,80.72
2018-05-01T00:37:20.788Z,81.58
2018-05-01T00:38:28.843Z,80.82
2018-05-01T00:39:36.892Z,80.91
2018-05-01T00:40:44.928Z,80.91
2018-05-01T00:41:53.034Z,80.05
2018-05-01T00:43:01.078Z,79.96
2018-05-01T00:44:09.138Z,79.49
2018-05-01T00:45:17.210Z,78.63
2018-05-01T00:46:25.238Z,79.11
2018-05-01T00:47:33.320Z,80.15
2018-05-01T00:48:41.384Z,81.10
2018-05-01T00:49:49.460Z,81.58
2018-05-01T00:50:57.518Z,80.91
2018-05-01T00:52:05.574Z,81.10
2018-05-01T00:53:13.627Z,80.91
2018-05-01T00:54:21.695Z,81.29
2018-05-01T00:55:29.733Z,83.00
2018-05-01T00:56:37.817Z,81.77
2018-05-01T00:57:45.873Z,81.77
2018-05-01T00:58:53.942Z,82.24
2018-05-01T01:00:01.976Z,81.29
2018-05-01T01:01:10.033Z,82.53
2018-05-01T01:02:18.110Z,82.53
2018-05-01T01:03:26.169Z,82.68
2018-05-01T01:04:34.242Z,82.96
2018-05-01T01:05:42.317Z,82.81
2018-05-01T01:06:50.369Z,82.87
2018-05-01T01:07:58.420Z,83.15
2018-05-01T01:09:06.456Z,82.96
2018-05-01T01:10:14.517Z,84.67
2018-05-01T01:11:22.602Z,84.20
2018-05-01T01:12:30.661Z,83.53
2018-05-01T01:13:38.716Z,83.53
2018-05-01T01:14:46.784Z,82.87
2018-05-01T01:15:54.813Z,82.49
2018-05-01T01:17:02.871Z,82.87
2018-05-01T01:18:10.975Z,82.87
2018-05-01T01:19:19.009Z,83.15
2018-05-01T01:20:27.069Z,83.15
2018-05-01T01:21:35.109Z,82.96
2018-05-01T01:22:43.182Z,83.15
2018-05-01T01:23:51.253Z,82.39
2018-05-01T01:24:59.307Z,83.25
2018-05-01T01:26:07.370Z,82.87
2018-05-01T01:27:15.416Z,82.49
2018-05-01T01:28:23.489Z,82.68
2018-05-01T01:29:31.594Z,82.39
2018-05-01T01:30:39.598Z,82.49
2018-05-01T01:31:47.670Z,82.68
2018-05-01T01:32:55.731Z,82.49
2018-05-01T01:34:03.791Z,82.96
2018-05-01T01:35:11.865Z,82.87
2018-05-01T01:36:19.902Z,82.87
2018-05-01T01:37:27.963Z,82.49
2018-05-01T01:38:36.035Z,82.58
2018-05-01T01:39:44.084Z,82.77
2018-05-01T01:40:52.131Z,83.53
2018-05-01T01:42:00.204Z,82.20
2018-05-01T01:43:08.282Z,82.49
2018-05-01T01:44:16.330Z,83.62
2018-05-01T01:45:24.376Z,83.62
2018-05-01T01:46:32.437Z,83.44
2018-05-01T01:47:40.505Z,83.82
2018-05-01T01:48:48.568Z,83.25
2018-05-01T01:49:56.652Z,82.87
2018-05-01T01:51:04.667Z,83.91
2018-05-01T01:52:12.734Z,84.01
2018-05-01T01:53:20.787Z,83.53
2018-05-01T01:54:28.866Z,83.44
2018-05-01T01:55:36.927Z,84.10
2018-05-01T01:56:44.954Z,84.01
2018-05-01T01:57:53.042Z,84.01
2018-05-01T01:59:01.105Z,84.20
2018-05-01T02:00:09.164Z,84.01
2018-05-01T02:01:17.223Z,84.10
2018-05-01T02:02:25.245Z,84.10
2018-05-01T02:03:33.336Z,84.10
2018-05-01T02:04:41.421Z,82.77
2018-05-01T02:05:49.467Z,82.87
2018-05-01T02:06:57.513Z,83.34
2018-05-01T02:08:05.574Z,82.96
2018-05-01T02:09:13.707Z,83.15
2018-05-01T02:10:21.692Z,83.25
2018-05-01T02:11:29.760Z,84.95
2018-05-01T02:12:37.822Z,84.39
2018-05-01T02:13:45.881Z,84.39
2018-05-01T02:14:53.942Z,85.15
2018-05-01T02:16:01.992Z,83.82
2018-05-01T02:17:10.066Z,84.01
2018-05-01T02:18:18.124Z,83.15
2018-05-01T02:19:26.178Z,83.91
2018-05-01T02:20:34.235Z,84.20
2018-05-01T02:21:42.298Z,83.44
2018-05-01T02:22:50.358Z,83.53
2018-05-01T02:23:58.412Z,83.53
2018-05-01T02:25:06.470Z,84.10
2018-05-01T02:26:14.532Z,84.01
2018-05-01T02:27:22.598Z,84.29
2018-05-01T02:28:30.662Z,84.48
2018-05-01T02:29:38.708Z,84.29
2018-05-01T02:30:46.772Z,84.86
2018-05-01T02:31:54.817Z,84.20
2018-05-01T02:33:02.908Z,84.67
2018-05-01T02:34:10.955Z,85.15
2018-05-01T02:35:19.029Z,83.72
2018-05-01T02:36:27.062Z,83.82
2018-05-01T02:37:35.112Z,84.01
2018-05-01T02:38:43.208Z,83.44
2018-05-01T02:39:51.254Z,82.68
2018-05-01T02:40:59.321Z,82.96
2018-05-01T02:42:07.379Z,83.82
2018-05-01T02:43:15.412Z,83.34
2018-05-01T02:44:23.524Z,83.15
2018-05-01T02:45:31.551Z,83.06
2018-05-01T02:46:39.611Z,82.20
2018-05-01T02:47:47.673Z,81.92
2018-05-01T02:48:55.726Z,82.77
2018-05-01T02:50:03.790Z,82.49
2018-05-01T02:51:11.848Z,83.82
2018-05-01T02:52:19.916Z,84.29
2018-05-01T02:53:27.975Z,83.91
2018-05-01T02:54:36.030Z,83.44
2018-05-01T02:55:44.086Z,83.62
2018-05-01T02:56:52.145Z,83.72
2018-05-01T02:58:00.202Z,83.44
2018-05-01T02:59:08.273Z,82.58
2018-05-01T03:00:16.325Z,82.20
2018-05-01T03:01:24.382Z,82.96
2018-05-01T03:02:32.452Z,83.34
2018-05-01T03:03:40.514Z,82.96
2018-05-01T03:04:48.577Z,83.34
2018-05-01T03:05:56.625Z,83.15
2018-05-01T03:07:04.671Z,83.53
2018-05-01T03:08:12.726Z,83.53
2018-05-01T03:09:20.799Z,83.82
2018-05-01T03:10:28.865Z,82.87
2018-05-01T03:11:36.929Z,82.49
2018-05-01T03:12:44.958Z,83.25
2018-05-01T03:13:53.051Z,85.15
2018-05-01T03:15:01.119Z,83.91
2018-05-01T03:16:09.162Z,83.06
2018-05-01T03:17:17.234Z,82.58
2018-05-01T03:18:25.256Z,83.06
2018-05-01T03:19:33.347Z,83.62
2018-05-01T03:20:41.412Z,83.25
2018-05-01T03:21:49.452Z,83.53
2018-05-01T03:22:57.529Z,84.86
2018-05-01T03:24:05.577Z,84.95
2018-05-01T03:25:13.632Z,84.86
2018-05-01T03:26:21.694Z,84.82
2018-05-01T03:27:29.753Z,85.15
2018-05-01T03:28:37.818Z,84.95
2018-05-01T03:29:45.879Z,85.30
2018-05-01T03:30:53.946Z,84.86
2018-05-01T03:32:02.006Z,84.53
2018-05-01T03:33:10.057Z,85.30
2018-05-01T03:34:18.119Z,85.53
2018-05-01T03:35:26.178Z,85.30
2018-05-01T03:36:34.235Z,85.30
2018-05-01T03:37:42.296Z,85.77
2018-05-01T03:38:50.356Z,85.11
2018-05-01T03:39:58.413Z,85.58
2018-05-01T03:41:06.490Z,86.24
2018-05-01T03:42:14.530Z,85.39
2018-05-01T03:43:22.592Z,85.77
2018-05-01T03:44:30.642Z,86.05
2018-05-01T03:45:38.724Z,86.72
2018-05-01T03:46:46.795Z,87.10
2018-05-01T03:47:54.822Z,87.38
2018-05-01T03:49:02.903Z,87.19
2018-05-01T03:50:10.947Z,87.10
2018-05-01T03:51:19.009Z,87.48
2018-05-01T03:52:27.077Z,87.48
2018-05-01T03:53:35.110Z,87.10
2018-05-01T03:54:43.193Z,87.29
2018-05-01T03:55:51.241Z,87.76
2018-05-01T03:56:59.310Z,88.15
2018-05-01T03:58:07.371Z,87.86
2018-05-01T03:59:15.477Z,87.48
2018-05-01T04:00:23.505Z,88.34
2018-05-01T04:01:31.559Z,87.86
2018-05-01T04:02:39.614Z,87.76
2018-05-01T04:03:47.671Z,88.62
2018-05-01T04:04:55.722Z,88.43
2018-05-01T04:06:03.782Z,87.95
2018-05-01T04:07:11.846Z,87.29
2018-05-01T04:08:19.914Z,87.95
2018-05-01T04:09:27.977Z,89.67
2018-05-01T04:10:36.038Z,88.62
2018-05-01T04:11:44.085Z,87.67
2018-05-01T04:12:52.143Z,87.95
2018-05-01T04:14:00.199Z,87.57
2018-05-01T04:15:08.272Z,88.62
2018-05-01T04:16:16.331Z,88.24
2018-05-01T04:17:24.398Z,88.24
2018-05-01T04:18:32.451Z,88.24
2018-05-01T04:19:40.512Z,88.53
2018-05-01T04:20:48.568Z,89.00
2018-05-01T04:21:56.622Z,89.00
2018-05-01T04:23:04.675Z,88.81
2018-05-01T04:24:12.734Z,87.76
2018-05-01T04:25:20.818Z,87.48
2018-05-01T04:26:28.875Z,88.34
2018-05-01T04:27:36.924Z,89.00
2018-05-01T04:28:44.952Z,88.62
2018-05-01T04:29:53.046Z,88.53
2018-05-01T04:31:01.105Z,89.67
2018-05-01T04:32:09.153Z,90.23
2018-05-01T04:33:17.224Z,87.57
2018-05-01T04:34:25.249Z,87.29
2018-05-01T04:35:33.340Z,87.19
2018-05-01T04:36:41.410Z,87.95
2018-05-01T04:37:49.443Z,88.90
2018-05-01T04:38:57.527Z,89.57
2018-05-01T04:40:05.613Z,90.05
2018-05-01T04:41:13.644Z,89.47
2018-05-01T04:42:21.693Z,89.57
2018-05-01T04:43:29.758Z,89.28
2018-05-01T04:44:37.819Z,89.95
2018-05-01T04:45:45.876Z,88.62
2018-05-01T04:46:53.932Z,88.53
2018-05-01T04:48:02.007Z,85.49
2018-05-01T04:49:10.056Z,86.72
2018-05-01T04:50:18.121Z,86.63
2018-05-01T04:51:26.167Z,85.86
2018-05-01T04:52:34.228Z,87.76
2018-05-01T04:53:42.292Z,85.49
2018-05-01T04:54:50.349Z,87.10
2018-05-01T04:55:58.414Z,87.95
2018-05-01T04:57:06.452Z,88.24
2018-05-01T04:58:14.519Z,88.81
2018-05-01T04:59:22.591Z,89.00
2018-05-01T05:00:30.644Z,87.01
2018-05-01T05:01:38.701Z,87.95
2018-05-01T05:02:46.780Z,88.53
2018-05-01T05:03:54.813Z,89.38
2018-05-01T05:05:02.894Z,89.76
2018-05-01T05:06:10.928Z,89.67
2018-05-01T05:07:19.021Z,90.05
2018-05-01T05:08:27.058Z,88.53
2018-05-01T05:09:35.202Z,88.81
2018-05-01T05:10:43.194Z,90.05
2018-05-01T05:11:51.239Z,87.38
2018-05-01T05:12:59.290Z,87.38
2018-05-01T05:14:07.369Z,88.15
2018-05-01T05:15:15.409Z,87.38
2018-05-01T05:16:23.534Z,88.81
2018-05-01T05:17:31.539Z,89.09
2018-05-01T05:18:39.603Z,88.62
2018-05-01T05:19:47.669Z,88.05
2018-05-01T05:20:55.718Z,87.57
2018-05-01T05:22:03.788Z,87.48
2018-05-01T05:23:11.836Z,87.76
2018-05-01T05:24:19.910Z,88.53
2018-05-01T05:25:27.961Z,88.43
2018-05-01T05:26:36.024Z,88.81
2018-05-01T05:27:44.082Z,88.15
2018-05-01T05:28:52.148Z,88.62
2018-05-01T05:30:00.195Z,89.09
2018-05-01T05:31:08.265Z,88.28
2018-05-01T05:32:16.312Z,87.81
2018-05-01T05:33:24.383Z,88.67
2018-05-01T05:34:32.434Z,87.52
2018-05-01T05:35:40.500Z,87.05
2018-05-01T05:36:48.655Z,87.62
2018-05-01T05:37:56.618Z,88.57
2018-05-01T05:39:04.655Z,88.47
2018-05-01T05:40:12.734Z,88.76
2018-05-01T05:41:20.799Z,88.67
2018-05-01T05:42:28.856Z,88.19
2018-05-01T05:43:36.908Z,87.34
2018-05-01T05:44:44.959Z,87.52
2018-05-01T05:45:53.033Z,85.62
2018-05-01T05:47:01.095Z,86.38
2018-05-01T05:48:09.156Z,86.29
2018-05-01T05:49:17.221Z,86.86
2018-05-01T05:50:25.243Z,87.05
2018-05-01T05:51:33.343Z,87.34
2018-05-01T05:52:41.392Z,87.52
2018-05-01T05:53:49.456Z,87.05
2018-05-01T05:54:57.525Z,87.90
2018-05-01T05:56:05.556Z,86.76
2018-05-01T05:57:13.636Z,86.10
2018-05-01T05:58:21.692Z,87.05
2018-05-01T05:59:29.756Z,87.34
2018-05-01T06:00:37.818Z,87.05
2018-05-01T06:01:45.873Z,87.14
2018-05-01T06:02:53.941Z,87.05
2018-05-01T06:05:16.912Z,85.38
2018-05-01T06:06:24.804Z,84.29
2018-05-01T06:07:32.839Z,84.62
2018-05-01T06:09:48.980Z,85.53
2018-05-01T06:10:57.073Z,83.91
2018-05-01T06:12:05.087Z,84.10
2018-05-01T06:13:13.170Z,84.77
2018-05-01T06:14:21.226Z,86.95
2018-05-01T06:15:29.274Z,86.19
2018-05-01T06:16:37.336Z,87.43
2018-05-01T06:17:45.407Z,87.24
2018-05-01T06:18:53.459Z,84.48
2018-05-01T06:20:01.542Z,86.00
2018-05-01T06:21:09.594Z,86.76
2018-05-01T06:22:17.636Z,86.47
2018-05-01T06:23:25.708Z,86.29
2018-05-01T06:24:33.769Z,86.29
2018-05-01T06:25:41.816Z,86.29
2018-05-01T06:26:50.129Z,85.91
2018-05-01T06:27:57.941Z,87.05
2018-05-01T06:29:05.998Z,85.34
2018-05-01T06:30:14.488Z,85.62
2018-05-01T06:31:22.165Z,84.48
2018-05-01T06:32:30.188Z,87.05
2018-05-01T06:33:38.256Z,86.76
2018-05-01T06:34:46.374Z,85.91
2018-05-01T06:35:54.351Z,84.48
2018-05-01T06:37:02.443Z,87.05
2018-05-01T06:38:10.491Z,87.24
2018-05-01T06:39:18.567Z,85.81
2018-05-01T06:40:26.611Z,87.14
2018-05-01T06:41:34.680Z,87.24
2018-05-01T06:42:42.705Z,87.43
2018-05-01T06:43:50.884Z,87.43
2018-05-01T06:44:58.850Z,87.24
2018-05-01T06:46:06.912Z,87.34
2018-05-01T06:47:14.981Z,86.76
2018-05-01T06:48:23.021Z,86.47
2018-05-01T06:49:31.080Z,86.38
2018-05-01T06:50:39.174Z,86.71
2018-05-01T06:51:47.356Z,86.33
2018-05-01T06:52:55.280Z,86.86
2018-05-01T06:54:03.376Z,87.76
2018-05-01T06:55:11.403Z,86.38
2018-05-01T06:56:19.474Z,86.05
2018-05-01T06:57:27.516Z,86.86
2018-05-01T06:58:35.573Z,86.47
2018-05-01T06:59:43.629Z,86.33
2018-05-01T07:00:51.695Z,87.38
2018-05-01T07:01:59.760Z,86.10
2018-05-01T07:03:07.819Z,86.90
2018-05-01T07:04:15.943Z,86.90
2018-05-01T07:05:23.931Z,86.90
2018-05-01T07:06:31.990Z,88.04
2018-05-01T07:07:40.050Z,86.90
2018-05-01T07:08:48.117Z,86.71
2018-05-01T07:09:56.190Z,86.71
2018-05-01T07:11:04.232Z,86.52
2018-05-01T07:12:12.278Z,86.52
2018-05-01T07:13:20.376Z,87.47
2018-05-01T07:14:28.413Z,87.47
2018-05-01T07:15:36.481Z,87.76
2018-05-01T07:16:44.544Z,88.13
2018-05-01T07:17:52.577Z,87.57
2018-05-01T07:19:00.672Z,87.09
2018-05-01T07:20:08.723Z,85.66
2018-05-01T07:21:16.831Z,86.05
2018-05-01T07:22:24.866Z,86.14
2018-05-01T07:23:32.893Z,86.33
2018-05-01T07:24:40.958Z,85.61
2018-05-01T07:25:49.026Z,85.76
2018-05-01T07:26:57.084Z,84.19
2018-05-01T07:28:05.158Z,84.05
2018-05-01T07:29:13.225Z,84.00
2018-05-01T07:30:21.278Z,84.91
2018-05-01T07:31:29.351Z,84.66
2018-05-01T07:32:37.387Z,84.62
2018-05-01T07:33:45.469Z,84.52
2018-05-01T07:34:53.503Z,84.24
2018-05-01T07:36:01.563Z,83.90
2018-05-01T07:37:09.627Z,84.56
2018-05-01T07:38:17.700Z,85.24
2018-05-01T07:39:25.754Z,83.62
2018-05-01T07:40:33.809Z,83.52
2018-05-01T07:41:41.893Z,84.76
2018-05-01T07:42:49.978Z,84.95
2018-05-01T07:43:58.008Z,84.66
2018-05-01T07:45:06.073Z,84.66
2018-05-01T07:46:14.347Z,83.52
2018-05-01T07:47:22.156Z,82.95
2018-05-01T07:48:30.236Z,82.09
2018-05-01T07:49:38.303Z,81.90
2018-05-01T07:50:46.382Z,82.76
2018-05-01T07:51:54.432Z,82.95
2018-05-01T07:53:02.491Z,82.57
2018-05-01T07:54:10.548Z,82.76
2018-05-01T07:55:18.608Z,84.09
2018-05-01T07:56:26.670Z,83.90
2018-05-01T07:57:34.717Z,83.62
2018-05-01T07:58:42.782Z,83.62
2018-05-01T07:59:50.863Z,82.28
2018-05-01T08:00:58.925Z,82.09
2018-05-01T08:02:06.977Z,81.33
2018-05-01T08:03:15.045Z,81.24
2018-05-01T08:04:23.095Z,80.19
2018-05-01T08:05:31.171Z,81.52
2018-05-01T08:06:39.210Z,80.52
2018-05-01T08:07:47.294Z,79.28
2018-05-01T08:08:55.352Z,79.81
2018-05-01T08:10:03.407Z,80.71
2018-05-01T08:11:11.457Z,80.76
2018-05-01T08:12:19.526Z,81.05
2018-05-01T08:13:27.585Z,81.56
2018-05-01T08:14:35.633Z,80.86
2018-05-01T08:15:43.722Z,79.66
2018-05-01T08:16:51.782Z,79.05
2018-05-01T08:17:59.829Z,80.86
2018-05-01T08:19:07.895Z,80.19
2018-05-01T08:20:15.957Z,80.29
2018-05-01T08:21:24.023Z,79.72
2018-05-01T08:22:32.061Z,81.33
2018-05-01T08:23:40.155Z,81.43
2018-05-01T08:24:48.201Z,81.33
2018-05-01T08:25:56.267Z,80.95
2018-05-01T08:27:04.315Z,81.24
2018-05-01T08:28:12.392Z,81.81
2018-05-01T08:29:20.441Z,81.33
2018-05-01T08:30:28.548Z,81.33
2018-05-01T08:31:36.625Z,81.62
2018-05-01T08:32:44.634Z,82.28
2018-05-01T08:33:52.681Z,82.86
2018-05-01T08:35:00.769Z,82.86
2018-05-01T08:36:08.891Z,83.33
2018-05-01T08:37:16.880Z,84.09
2018-05-01T08:38:24.965Z,85.24
2018-05-01T08:39:33.056Z,83.62
2018-05-01T08:40:41.070Z,84.76
2018-05-01T08:41:49.148Z,83.04
2018-05-01T08:42:57.190Z,83.33
2018-05-01T08:44:05.242Z,84.47
2018-05-01T08:45:13.329Z,84.28
2018-05-01T08:46:21.372Z,85.08
2018-05-01T08:47:29.456Z,83.65
2018-05-01T08:48:37.495Z,82.42
2018-05-01T08:49:45.561Z,83.28
2018-05-01T08:50:53.620Z,83.28
2018-05-01T08:52:01.696Z,83.09
2018-05-01T08:53:09.748Z,82.32
2018-05-01T08:54:17.810Z,83.09
2018-05-01T08:55:25.875Z,82.51
2018-05-01T08:56:33.913Z,82.61
2018-05-01T08:57:41.980Z,81.28
2018-05-01T08:58:50.059Z,81.28
2018-05-01T08:59:58.108Z,81.47
2018-05-01T09:01:06.201Z,81.85
2018-05-01T09:02:14.242Z,81.47
2018-05-01T09:03:22.279Z,82.51
2018-05-01T09:04:30.363Z,81.47
2018-05-01T09:05:38.408Z,81.32
2018-05-01T09:06:46.474Z,81.89
2018-05-01T09:07:54.551Z,81.13
2018-05-01T09:09:02.588Z,80.33
2018-05-01T09:10:10.669Z,80.23
2018-05-01T09:11:18.714Z,80.90
2018-05-01T09:12:26.785Z,80.80
2018-05-01T09:13:34.852Z,81.18
2018-05-01T09:14:42.888Z,81.76
2018-05-01T09:15:50.979Z,81.66
2018-05-01T09:16:59.133Z,82.04
2018-05-01T09:18:07.379Z,81.85
2018-05-01T09:19:15.142Z,82.46
2018-05-01T09:20:23.216Z,82.65
2018-05-01T09:21:31.281Z,81.79
2018-05-01T09:22:39.344Z,80.08
2018-05-01T09:23:47.397Z,80.27
2018-05-01T09:24:55.478Z,79.03
2018-05-01T09:26:03.538Z,80.27
2018-05-01T09:27:11.608Z,80.46
2018-05-01T09:28:19.655Z,79.60
2018-05-01T09:29:27.716Z,79.80
2018-05-01T09:30:35.782Z,81.03
2018-05-01T09:31:43.845Z,80.65
2018-05-01T09:32:51.898Z,82.56
2018-05-01T09:33:59.963Z,82.27
2018-05-01T09:35:08.029Z,81.70
2018-05-01T09:36:16.091Z,81.70
2018-05-01T09:37:24.174Z,82.18
2018-05-01T09:38:32.206Z,81.23
2018-05-01T09:39:40.285Z,81.23
2018-05-01T09:40:48.381Z,81.41
2018-05-01T09:41:56.397Z,80.27
2018-05-01T09:43:04.457Z,79.99
2018-05-01T09:44:12.503Z,80.36
2018-05-01T09:45:20.591Z,80.94
2018-05-01T09:46:28.662Z,79.99
2018-05-01T09:47:36.794Z,79.32
2018-05-01T09:48:44.773Z,78.85
2018-05-01T09:49:52.825Z,79.36
2018-05-01T09:51:00.914Z,79.27
2018-05-01T09:52:08.974Z,80.60
2018-05-01T09:53:17.112Z,81.17
2018-05-01T09:54:25.089Z,79.46
2018-05-01T09:55:33.160Z,78.88
2018-05-01T09:56:41.214Z,80.02
2018-05-01T09:57:49.281Z,77.49
2018-05-01T09:58:57.357Z,78.35
2018-05-01T10:00:05.407Z,79.02
2018-05-01T10:01:13.464Z,79.40
2018-05-01T10:02:21.524Z,78.83
2018-05-01T10:03:29.600Z,78.59
2018-05-01T10:04:37.672Z,79.17
2018-05-01T10:05:45.723Z,80.31
2018-05-01T10:06:53.777Z,80.12
2018-05-01T10:08:01.859Z,77.83
2018-05-01T10:09:09.924Z,78.03
2018-05-01T10:10:17.967Z,79.27
2018-05-01T10:11:26.033Z,79.64
2018-05-01T10:12:34.107Z,79.89
2018-05-01T10:13:42.137Z,79.60
2018-05-01T10:14:50.219Z,80.27
2018-05-01T10:15:58.288Z,79.80
2018-05-01T10:17:06.342Z,79.89
2018-05-01T10:18:14.422Z,78.59
2018-05-01T10:19:22.448Z,79.36
2018-05-01T10:20:30.543Z,78.50
2018-05-01T10:21:38.603Z,77.64
2018-05-01T10:22:46.667Z,78.83
2018-05-01T10:23:54.729Z,77.49
2018-05-01T10:25:02.784Z,76.25
2018-05-01T10:26:10.861Z,73.58
2018-05-01T10:27:18.927Z,73.14
2018-05-01T10:28:26.998Z,73.62
2018-05-01T10:29:35.053Z,74.57
2018-05-01T10:30:43.104Z,75.81
2018-05-01T10:31:51.173Z,73.91
2018-05-01T10:32:59.234Z,74.77
2018-05-01T10:34:07.322Z,73.43
2018-05-01T10:35:15.368Z,73.33
2018-05-01T10:36:23.439Z,73.24
2018-05-01T10:37:31.504Z,72.76
2018-05-01T10:38:39.605Z,73.14
2018-05-01T10:39:47.621Z,72.67
2018-05-01T10:40:55.687Z,70.76
2018-05-01T10:42:03.760Z,72.48
2018-05-01T10:43:11.808Z,73.05
2018-05-01T10:44:19.879Z,73.33
2018-05-01T10:45:27.954Z,72.00
2018-05-01T10:46:36.009Z,72.48
2018-05-01T10:47:44.063Z,73.52
2018-05-01T10:48:52.120Z,73.33
2018-05-01T10:50:00.190Z,74.19
2018-05-01T10:51:08.252Z,73.62
2018-05-01T10:52:16.347Z,74.48
2018-05-01T10:53:24.394Z,73.62
2018-05-01T10:54:32.492Z,73.24
2018-05-01T10:55:40.528Z,73.43
2018-05-01T10:56:48.588Z,73.43
2018-05-01T10:57:56.639Z,72.76
2018-05-01T10:59:04.714Z,74.48
2018-05-01T11:00:12.762Z,74.77
2018-05-01T11:01:20.839Z,73.43
2018-05-01T11:02:28.906Z,71.84
2018-05-01T11:03:36.985Z,72.32
2018-05-01T11:04:45.032Z,72.89
2018-05-01T11:05:53.130Z,71.18
2018-05-01T11:07:01.169Z,71.37
2018-05-01T11:08:09.225Z,70.51
2018-05-01T11:09:17.288Z,70.92
2018-05-01T11:10:25.357Z,70.07
2018-05-01T11:11:33.429Z,68.26
2018-05-01T11:12:41.477Z,69.11
2018-05-01T11:13:49.566Z,68.92
2018-05-01T11:14:57.629Z,69.31
2018-05-01T11:16:05.684Z,69.21
2018-05-01T11:17:13.770Z,68.73
2018-05-01T11:18:21.826Z,68.63
2018-05-01T11:19:30.049Z,69.49
2018-05-01T11:20:37.962Z,70.16
2018-05-01T11:21:46.034Z,69.31
2018-05-01T11:22:54.080Z,69.87
2018-05-01T11:24:02.154Z,70.73
2018-05-01T11:25:10.200Z,70.45
2018-05-01T11:26:18.398Z,69.87
2018-05-01T11:27:26.358Z,71.88
2018-05-01T11:28:34.477Z,69.97
2018-05-01T11:29:42.459Z,70.03
2018-05-01T11:30:50.564Z,71.12
2018-05-01T11:31:58.611Z,70.92
2018-05-01T11:33:06.657Z,69.21
2018-05-01T11:34:14.739Z,69.31
2018-05-01T11:35:22.803Z,69.31
2018-05-01T11:36:30.868Z,68.82
2018-05-01T11:37:38.934Z,68.92
2018-05-01T11:38:47.007Z,68.54
2018-05-01T11:39:55.076Z,68.06
2018-05-01T11:41:03.128Z,68.73
2018-05-01T11:42:11.202Z,69.11
2018-05-01T11:43:19.258Z,67.30
2018-05-01T11:44:27.332Z,68.63
2018-05-01T11:45:35.470Z,66.76
2018-05-01T11:46:43.461Z,67.58
2018-05-01T11:47:51.517Z,66.72
2018-05-01T11:48:59.581Z,67.81
2018-05-01T11:50:07.663Z,66.85
2018-05-01T11:51:15.728Z,67.43
2018-05-01T11:52:23.792Z,67.97
2018-05-01T11:53:31.838Z,69.24
2018-05-01T11:54:39.915Z,67.91
2018-05-01T11:55:48.003Z,68.00
2018-05-01T11:56:56.055Z,69.24
2018-05-01T11:58:04.121Z,67.91
2018-05-01T11:59:12.167Z,66.76
2018-05-01T12:00:20.252Z,67.05
2018-05-01T12:01:28.332Z,66.95
2018-05-01T12:02:36.481Z,66.66
2018-05-01T12:03:44.448Z,67.14
2018-05-01T12:04:52.494Z,68.16
2018-05-01T12:06:00.590Z,68.26
2018-05-01T12:07:08.694Z,66.38
2018-05-01T12:08:16.703Z,66.28
2018-05-01T12:09:24.759Z,65.90
2018-05-01T12:10:32.879Z,66.66
2018-05-01T12:11:40.917Z,66.13
2018-05-01T12:12:48.983Z,65.93
2018-05-01T12:13:57.040Z,66.89
2018-05-01T12:15:05.123Z,65.36
2018-05-01T12:16:13.220Z,62.49
2018-05-01T12:17:21.225Z,64.05
2018-05-01T12:18:29.341Z,65.55
2018-05-01T12:19:37.375Z,67.08
2018-05-01T12:20:45.432Z,65.36
2018-05-01T12:21:53.511Z,64.88
2018-05-01T12:23:01.585Z,66.13
2018-05-01T12:24:09.648Z,65.45
2018-05-01T12:25:17.710Z,63.83
2018-05-01T12:26:25.783Z,64.62
2018-05-01T12:27:33.828Z,65.26
2018-05-01T12:28:41.898Z,64.50
2018-05-01T12:29:50.390Z,66.03
2018-05-01T12:30:58.050Z,65.74
2018-05-01T12:32:06.092Z,66.03
2018-05-01T12:33:14.171Z,65.45
2018-05-01T12:34:22.237Z,66.41
2018-05-01T12:35:30.312Z,64.98
2018-05-01T12:36:38.409Z,66.70
2018-05-01T12:37:46.444Z,65.90
2018-05-01T12:38:54.514Z,65.23
2018-05-01T12:40:02.558Z,66.76
2018-05-01T12:41:10.616Z,66.19
2018-05-01T12:42:18.693Z,66.56
2018-05-01T12:43:26.770Z,67.05
2018-05-01T12:44:34.842Z,66.03
2018-05-01T12:45:42.937Z,65.26
2018-05-01T12:46:50.991Z,66.03
2018-05-01T12:47:59.040Z,65.93
2018-05-01T12:49:07.096Z,66.89
2018-05-01T12:50:15.164Z,66.31
2018-05-01T12:51:23.233Z,65.55
2018-05-01T12:52:31.313Z,65.33
2018-05-01T12:53:39.372Z,65.90
2018-05-01T12:54:47.426Z,65.52
2018-05-01T12:55:55.501Z,66.00
2018-05-01T12:57:03.568Z,67.97
2018-05-01T12:58:11.642Z,67.87
2018-05-01T12:59:19.695Z,68.10
2018-05-01T13:00:27.775Z,67.81
2018-05-01T13:01:35.835Z,66.56
2018-05-01T13:02:43.925Z,66.76
2018-05-01T13:03:51.952Z,66.95
2018-05-01T13:05:00.098Z,66.47
2018-05-01T13:06:08.166Z,65.61
2018-05-01T13:07:16.149Z,66.28
2018-05-01T13:08:24.230Z,66.38
2018-05-01T13:09:32.293Z,67.14
2018-05-01T13:10:40.403Z,66.66
2018-05-01T13:11:48.502Z,66.92
2018-05-01T13:12:56.483Z,67.30
2018-05-01T13:14:04.554Z,67.77
2018-05-01T13:15:12.614Z,67.14
2018-05-01T13:16:20.736Z,67.49
2018-05-01T13:17:28.767Z,67.30
2018-05-01T13:18:36.814Z,67.33
2018-05-01T13:19:44.915Z,66.66
2018-05-01T13:20:52.939Z,66.76
2018-05-01T13:22:01.018Z,67.52
2018-05-01T13:23:09.059Z,67.71
2018-05-01T13:24:17.157Z,66.00
2018-05-01T13:25:25.212Z,66.70
2018-05-01T13:26:33.263Z,67.46
2018-05-01T13:27:41.354Z,66.13
2018-05-01T13:28:49.413Z,65.11
2018-05-01T13:29:57.479Z,64.53
2018-05-01T13:31:05.541Z,64.25
2018-05-01T13:32:13.601Z,63.00
2018-05-01T13:33:21.674Z,62.43
2018-05-01T13:34:29.741Z,62.37
2018-05-01T13:35:37.808Z,61.69
2018-05-01T13:36:45.871Z,61.69
2018-05-01T13:37:54.010Z,63.32
2018-05-01T13:39:01.994Z,61.51
2018-05-01T13:40:10.074Z,61.12
2018-05-01T13:41:18.150Z,59.78
2018-05-01T13:42:26.195Z,61.60
2018-05-01T13:43:34.303Z,62.65
2018-05-01T13:44:42.325Z,60.93
2018-05-01T13:45:50.418Z,60.93
2018-05-01T13:46:58.461Z,60.16
2018-05-01T13:48:06.535Z,61.79
2018-05-01T13:49:14.591Z,62.17
2018-05-01T13:50:22.666Z,61.02
2018-05-01T13:51:30.722Z,61.79
2018-05-01T13:52:38.811Z,59.40
2018-05-01T13:53:46.870Z,61.12
2018-05-01T13:54:54.950Z,63.80
2018-05-01T13:56:02.998Z,61.85
2018-05-01T13:57:11.155Z,61.47
2018-05-01T13:58:19.155Z,61.38
2018-05-01T13:59:27.197Z,61.95
2018-05-01T14:00:35.308Z,61.98
2018-05-01T14:01:43.340Z,61.47
2018-05-01T14:02:51.383Z,62.74
2018-05-01T14:03:59.483Z,60.64
2018-05-01T14:05:07.530Z,59.88
2018-05-01T14:06:15.593Z,59.78
2018-05-01T14:07:23.653Z,59.59
2018-05-01T14:08:31.735Z,60.74
2018-05-01T14:09:39.807Z,61.51
2018-05-01T14:10:47.882Z,62.55
2018-05-01T14:11:55.957Z,61.02
2018-05-01T14:13:03.993Z,60.83
2018-05-01T14:14:12.059Z,61.51
2018-05-01T14:15:20.252Z,61.22
2018-05-01T14:16:28.189Z,59.88
2018-05-01T14:17:36.282Z,59.30
2018-05-01T14:18:44.324Z,61.69
2018-05-01T14:19:52.370Z,62.55
2018-05-01T14:21:00.479Z,61.60
2018-05-01T14:22:08.552Z,60.74
2018-05-01T14:23:16.670Z,62.52
2018-05-01T14:24:24.662Z,60.99
2018-05-01T14:25:32.922Z,60.80
2018-05-01T14:26:40.797Z,61.09
2018-05-01T14:27:48.855Z,60.71
2018-05-01T14:28:56.977Z,61.85
2018-05-01T14:30:05.005Z,61.38
2018-05-01T14:31:13.075Z,62.43
2018-05-01T14:32:21.140Z,62.43
2018-05-01T14:33:29.185Z,62.24
2018-05-01T14:34:37.256Z,62.71
2018-05-01T14:35:45.320Z,62.14
2018-05-01T14:36:53.379Z,61.19
2018-05-01T14:38:01.464Z,60.99
2018-05-01T14:39:09.541Z,61.57